Time;durP1;ratioP1;P1;durP2;ratioP2;P2;SDS_P1;SDS_P2;PMS_P1;PMS_P2;Temp;Humidity;BMP_temperature;BMP_pressure;BME280_temperature;BME280_humidity;BME280_pressure;Samples;Min_cycle;Max_cycle;Signal;HPM_P1;HPM_P2
2022/03/09 00:02:24;;;;;;;5.20;3.20;;;;;;;-1.84;77.77;101250.35;107550;1247;59628;-71
2022/03/09 00:04:53;;;;;;;4.80;2.80;;;;;;;-1.81;77.50;101246.91;107717;1245;59770;-67
2022/03/09 00:07:27;;;;;;;6.40;3.70;;;;;;;-1.79;77.68;101243.64;107568;1246;74415;-69
2022/03/09 00:09:56;;;;;;;5.80;3.40;;;;;;;-1.83;77.47;101245.56;107205;1247;72982;-67
2022/03/09 00:12:27;;;;;;;6.30;3.40;;;;;;;-1.86;77.17;101244.23;107458;1247;70242;-67
2022/03/09 00:14:56;;;;;;;5.50;3.50;;;;;;;-1.87;76.89;101245.61;107432;1246;74768;-66
2022/03/09 00:17:28;;;;;;;5.10;3.30;;;;;;;-1.88;77.00;101249.56;107325;1247;61236;-68
2022/03/09 00:19:57;;;;;;;4.40;2.50;;;;;;;-1.86;76.39;101250.21;107571;1245;59844;-67
2022/03/09 00:22:29;;;;;;;6.50;3.50;;;;;;;-1.89;76.03;101249.39;107554;1245;72827;-68
2022/03/09 00:24:58;;;;;;;5.40;3.20;;;;;;;-1.89;76.07;101248.88;107377;1247;72062;-67
2022/03/09 00:27:27;;;;;;;6.50;3.50;;;;;;;-1.89;76.27;101248.54;107610;1245;69037;-68
2022/03/09 00:29:56;;;;;;;6.40;3.50;;;;;;;-1.82;75.70;101244.87;107575;1245;72283;-67
2022/03/09 00:32:25;;;;;;;5.60;3.10;;;;;;;-1.86;75.15;101247.65;107608;1247;59898;-70
2022/03/09 00:34:54;;;;;;;6.80;3.20;;;;;;;-1.91;74.62;101242.59;107667;1246;60455;-69
2022/03/09 00:37:23;;;;;;;4.00;2.30;;;;;;;-1.94;73.96;101241.09;107613;1247;73326;-67
2022/03/09 00:39:52;;;;;;;5.40;3.00;;;;;;;-1.90;73.87;101238.14;107459;1246;70623;-67
2022/03/09 00:42:21;;;;;;;2.60;1.90;;;;;;;-1.94;74.29;101236.46;107544;1247;68269;-68
2022/03/09 00:44:50;;;;;;;4.10;2.70;;;;;;;-1.96;74.08;101241.27;107308;1247;73757;-66
2022/03/09 00:47:20;;;;;;;3.20;2.30;;;;;;;-1.97;74.04;101243.86;107580;1247;59580;-66
2022/03/09 00:49:49;;;;;;;3.10;1.90;;;;;;;-2.01;73.88;101248.69;107687;1246;60164;-66
2022/03/09 00:52:18;;;;;;;4.00;2.40;;;;;;;-2.04;73.96;101253.33;107507;1246;75278;-66
2022/03/09 00:54:47;;;;;;;5.60;2.60;;;;;;;-2.12;74.29;101255.64;107329;1247;72451;-65
2022/03/09 00:57:16;;;;;;;3.30;2.00;;;;;;;-2.13;73.95;101260.77;107681;1246;68337;-67
2022/03/09 00:59:45;;;;;;;4.00;2.70;;;;;;;-2.16;74.12;101256.88;107507;1247;74842;-68
2022/03/09 01:02:14;;;;;;;4.40;2.50;;;;;;;-2.20;74.16;101256.07;107499;1247;61176;-65
2022/03/09 01:04:44;;;;;;;4.70;2.60;;;;;;;-2.17;74.26;101257.56;107662;1246;60624;-66
2022/03/09 01:07:13;;;;;;;4.60;2.60;;;;;;;-2.12;73.89;101254.95;107410;1247;75524;-66
2022/03/09 01:09:42;;;;;;;3.80;2.50;;;;;;;-2.14;73.47;101256.70;107559;1246;69944;-67
2022/03/09 01:12:11;;;;;;;4.00;2.50;;;;;;;-2.16;73.44;101261.48;107359;1247;70307;-67
2022/03/09 01:14:43;;;;;;;4.50;2.40;;;;;;;-2.20;73.45;101261.38;107464;1245;72538;-65
2022/03/09 01:17:12;;;;;;;4.00;2.20;;;;;;;-2.21;73.84;101261.89;107559;1247;61758;-66
2022/03/09 01:19:42;;;;;;;3.70;2.20;;;;;;;-2.21;74.07;101260.52;107378;1247;61161;-67
2022/03/09 01:22:10;;;;;;;4.60;2.80;;;;;;;-2.19;74.10;101263.92;107623;1246;74565;-67
2022/03/09 01:24:39;;;;;;;4.70;2.70;;;;;;;-2.18;73.25;101263.89;107530;1246;73114;-67
2022/03/09 01:27:09;;;;;;;6.30;2.50;;;;;;;-2.25;73.00;101267.05;107550;1246;71318;-66
2022/03/09 01:29:38;;;;;;;3.60;1.90;;;;;;;-2.34;72.95;101268.85;107204;1247;74497;-66
2022/03/09 01:32:07;;;;;;;3.20;2.10;;;;;;;-2.34;72.91;101269.02;107556;1247;60441;-66
2022/03/09 01:34:36;;;;;;;4.50;2.30;;;;;;;-2.38;73.08;101271.27;107751;1246;60112;-67
2022/03/09 01:37:05;;;;;;;4.70;2.60;;;;;;;-2.47;73.45;101264.88;107549;1247;71711;-69
2022/03/09 01:39:34;;;;;;;4.70;2.90;;;;;;;-2.42;73.68;101270.29;107581;1247;73450;-67
2022/03/09 01:42:04;;;;;;;3.10;2.10;;;;;;;-2.51;72.65;101265.61;107581;1245;70343;-65
2022/03/09 01:44:33;;;;;;;2.70;1.90;;;;;;;-2.55;72.93;101272.47;107432;1247;74111;-65
2022/03/09 01:47:04;;;;;;;3.60;2.30;;;;;;;-2.59;72.28;101269.95;107669;1247;59735;-70
2022/03/09 01:49:33;;;;;;;3.10;2.20;;;;;;;-2.75;72.52;101273.83;107515;1247;60280;-65
2022/03/09 01:52:04;;;;;;;3.60;2.20;;;;;;;-2.83;72.67;101275.61;107497;1247;72821;-65
2022/03/09 01:54:33;;;;;;;4.20;2.40;;;;;;;-2.90;73.12;101277.54;107477;1247;69842;-66
2022/03/09 01:57:04;;;;;;;4.10;1.90;;;;;;;-2.99;73.46;101274.37;107436;1247;67879;-65
2022/03/09 01:59:33;;;;;;;3.50;2.20;;;;;;;-2.98;72.92;101277.77;107415;1246;73910;-67
2022/03/09 02:02:02;;;;;;;4.80;2.30;;;;;;;-3.15;73.03;101280.96;107382;1245;60354;-67
2022/03/09 02:04:32;;;;;;;3.80;2.70;;;;;;;-3.22;72.66;101276.40;107567;1246;61614;-68
2022/03/09 02:07:01;;;;;;;3.60;2.00;;;;;;;-3.35;73.27;101277.86;109074;1245;74702;-68
2022/03/09 02:09:46;;;;;;;4.90;2.40;;;;;;;-3.34;73.29;101278.02;107778;1246;72154;-69
2022/03/09 02:12:19;;;;;;;4.10;2.60;;;;;;;-3.39;73.65;101284.70;107435;1247;69459;-65
2022/03/09 02:14:51;;;;;;;4.20;2.40;;;;;;;-3.44;74.10;101284.05;107626;1247;73901;-66
2022/03/09 02:17:26;;;;;;;5.50;2.40;;;;;;;-3.51;73.49;101285.27;107754;1247;62167;-66
2022/03/09 02:19:57;;;;;;;4.90;2.10;;;;;;;-3.60;73.74;101285.48;107766;1246;59534;-65
2022/03/09 02:22:31;;;;;;;4.30;2.70;;;;;;;-3.66;74.09;101280.92;107605;1247;74467;-65
2022/03/09 02:25:05;;;;;;;4.70;2.30;;;;;;;-3.77;74.14;101286.41;107900;1247;70328;-66
2022/03/09 02:27:35;;;;;;;3.80;2.60;;;;;;;-3.86;74.44;101286.27;107599;1247;70724;-67
2022/03/09 02:30:10;;;;;;;5.00;2.70;;;;;;;-3.89;74.40;101291.40;107666;1246;71965;-66
2022/03/09 02:32:48;;;;;;;4.80;2.30;;;;;;;-3.96;74.96;101293.65;107762;1246;61269;-66
2022/03/09 02:35:19;;;;;;;3.90;2.10;;;;;;;-4.01;75.09;101289.73;107568;1246;59606;-68
2022/03/09 02:37:48;;;;;;;6.40;2.90;;;;;;;-4.00;74.59;101294.33;107766;1246;71923;-68
2022/03/09 02:40:17;;;;;;;5.10;2.40;;;;;;;-4.04;74.52;101297.73;107546;1247;70571;-66
2022/03/09 02:42:46;;;;;;;3.80;2.40;;;;;;;-4.08;74.89;101296.57;107716;1246;71567;-65
2022/03/09 02:45:15;;;;;;;4.40;2.20;;;;;;;-4.06;75.14;101294.52;107671;1247;72226;-67
2022/03/09 02:47:45;;;;;;;4.70;2.70;;;;;;;-3.95;75.17;101291.24;107640;1245;60680;-67
2022/03/09 02:50:15;;;;;;;4.90;2.80;;;;;;;-3.85;74.84;101295.63;107571;1247;62187;-66
2022/03/09 02:52:46;;;;;;;4.00;2.60;;;;;;;-3.82;74.13;101297.15;107762;1246;72405;-68
2022/03/09 02:55:18;;;;;;;3.90;2.50;;;;;;;-3.86;73.83;101296.50;107649;1246;71271;-64
2022/03/09 02:57:47;;;;;;;4.90;2.70;;;;;;;-3.88;74.12;101302.11;107672;1247;68694;-65
2022/03/09 03:00:16;;;;;;;3.80;2.50;;;;;;;-3.88;74.23;101300.92;107659;1246;71233;-66
2022/03/09 03:02:45;;;;;;;3.30;1.90;;;;;;;-3.84;74.04;101300.40;107578;1247;62439;-67
2022/03/09 03:05:14;;;;;;;4.40;2.50;;;;;;;-3.79;74.21;101300.72;107686;1246;60302;-66
2022/03/09 03:07:45;;;;;;;4.00;2.30;;;;;;;-3.76;74.24;101306.48;107697;1245;71696;-66
2022/03/09 03:10:14;;;;;;;3.90;2.30;;;;;;;-3.79;73.39;101307.70;107667;1247;71838;-66
2022/03/09 03:12:43;;;;;;;5.00;2.70;;;;;;;-3.81;73.06;101307.71;107295;1247;71927;-66
2022/03/09 03:15:12;;;;;;;3.90;2.50;;;;;;;-3.83;73.22;101312.14;107566;1246;73293;-65
2022/03/09 03:17:41;;;;;;;4.60;2.60;;;;;;;-3.81;73.23;101315.87;107499;1247;63515;-67
2022/03/09 03:20:10;;;;;;;6.10;2.70;;;;;;;-3.78;73.69;101318.41;107410;1247;62040;-64
2022/03/09 03:22:39;;;;;;;3.00;1.90;;;;;;;-3.73;73.41;101322.15;107513;1247;74063;-64
2022/03/09 03:25:08;;;;;;;6.40;2.90;;;;;;;-3.76;73.46;101321.83;107449;1247;70718;-65
2022/03/09 03:27:37;;;;;;;4.20;2.10;;;;;;;-3.79;73.41;101324.71;107397;1247;68141;-65
2022/03/09 03:30:07;;;;;;;4.90;2.70;;;;;;;-3.77;73.25;101325.39;107476;1247;72428;-64
2022/03/09 03:32:37;;;;;;;5.50;2.90;;;;;;;-3.82;73.59;101325.41;107484;1247;61491;-64
2022/03/09 03:35:06;;;;;;;3.10;2.30;;;;;;;-3.82;73.99;101326.77;107394;1247;61394;-65
2022/03/09 03:37:35;;;;;;;4.60;2.60;;;;;;;-3.72;73.44;101330.66;107472;1247;72619;-67
2022/03/09 03:40:05;;;;;;;3.90;2.80;;;;;;;-3.83;74.08;101328.46;107461;1247;71097;-64
2022/03/09 03:42:34;;;;;;;5.50;2.90;;;;;;;-3.78;73.94;101327.95;107482;1247;68717;-68
2022/03/09 03:45:04;;;;;;;6.20;3.40;;;;;;;-3.81;74.31;101327.11;107494;1247;71910;-66
2022/03/09 03:47:33;;;;;;;6.10;3.20;;;;;;;-3.82;74.64;101333.92;107545;1247;59995;-66
2022/03/09 03:50:03;;;;;;;4.70;2.80;;;;;;;-3.81;74.56;101332.56;107535;1247;60048;-66
2022/03/09 03:52:31;;;;;;;5.10;2.80;;;;;;;-3.85;75.00;101333.59;107511;1247;73818;-68
2022/03/09 03:55:01;;;;;;;8.10;3.90;;;;;;;-3.86;75.79;101336.98;107559;1247;72955;-66
2022/03/09 03:57:30;;;;;;;5.50;3.00;;;;;;;-3.79;75.86;101336.98;107515;1247;69796;-68
2022/03/09 03:59:59;;;;;;;5.30;3.10;;;;;;;-3.79;75.73;101338.00;107509;1247;71904;-65
2022/03/09 04:02:28;;;;;;;4.30;2.70;;;;;;;-3.82;75.97;101344.48;107549;1247;59616;-67
2022/03/09 04:04:57;;;;;;;5.70;3.60;;;;;;;-3.80;75.68;101347.88;107503;1247;59001;-65
2022/03/09 04:07:27;;;;;;;6.20;3.60;;;;;;;-3.87;76.18;101345.00;107483;1247;72471;-67
2022/03/09 04:09:55;;;;;;;5.30;2.90;;;;;;;-3.83;76.15;101346.02;107507;1247;72572;-67
2022/03/09 04:12:25;;;;;;;6.30;3.50;;;;;;;-3.77;76.15;101349.56;107366;1247;71361;-68
2022/03/09 04:14:54;;;;;;;6.50;3.50;;;;;;;-3.81;76.36;101351.29;107353;1247;73355;-69
2022/03/09 04:17:23;;;;;;;5.80;3.50;;;;;;;-3.91;77.19;101352.67;107310;1247;59434;-69
2022/03/09 04:19:52;;;;;;;6.60;3.60;;;;;;;-3.94;78.19;101354.05;107302;1247;61134;-69
2022/03/09 04:22:21;;;;;;;8.30;4.40;;;;;;;-3.90;78.28;101353.86;107372;1247;74844;-71
2022/03/09 04:24:51;;;;;;;6.60;4.10;;;;;;;-3.83;77.45;101354.87;107281;1247;71089;-71
2022/03/09 04:27:20;;;;;;;6.10;2.90;;;;;;;-3.85;77.40;101355.05;107377;1247;69356;-67
2022/03/09 04:29:50;;;;;;;6.70;4.20;;;;;;;-3.88;77.95;101362.02;107283;1247;74937;-69
2022/03/09 04:32:19;;;;;;;6.90;4.30;;;;;;;-3.93;79.53;101363.40;107300;1247;60791;-67
2022/03/09 04:34:48;;;;;;;9.20;5.50;;;;;;;-3.90;79.61;101368.33;107360;1247;60733;-65
2022/03/09 04:37:17;;;;;;;8.00;4.10;;;;;;;-3.93;79.94;101369.69;107208;1249;74934;-68
2022/03/09 04:39:46;;;;;;;7.00;4.80;;;;;;;-3.98;80.92;101369.70;107326;1247;72199;-67
2022/03/09 04:42:15;;;;;;;9.30;4.60;;;;;;;-3.95;80.02;101369.86;107334;1247;70323;-67
2022/03/09 04:44:44;;;;;;;8.00;4.20;;;;;;;-3.92;79.56;101367.14;107193;1247;74109;-69
2022/03/09 04:47:14;;;;;;;7.30;4.30;;;;;;;-3.95;80.12;101370.20;107327;1247;59718;-69
2022/03/09 04:49:43;;;;;;;10.60;4.40;;;;;;;-3.87;79.79;101369.17;107340;1247;61696;-69
2022/03/09 04:52:13;;;;;;;8.10;4.30;;;;;;;-3.88;79.31;101375.13;107350;1247;73239;-69
2022/03/09 04:54:43;;;;;;;8.30;5.30;;;;;;;-3.88;79.24;101379.55;107324;1247;72326;-68
2022/03/09 04:57:15;;;;;;;7.90;4.90;;;;;;;-3.96;79.76;101386.04;107207;1249;71667;-69
2022/03/09 04:59:44;;;;;;;8.90;4.90;;;;;;;-3.85;79.07;101388.58;107277;1247;71817;-68
2022/03/09 05:02:14;;;;;;;8.30;4.60;;;;;;;-3.82;78.65;101393.15;107154;1247;59587;-69
2022/03/09 05:04:44;;;;;;;9.60;4.80;;;;;;;-3.79;78.38;101396.73;107279;1247;60908;-69
2022/03/09 05:07:13;;;;;;;9.90;5.60;;;;;;;-3.86;78.58;101400.65;107299;1247;73139;-71
2022/03/09 05:09:42;;;;;;;8.00;4.90;;;;;;;-3.72;79.02;101400.10;107091;1247;71783;-71
2022/03/09 05:12:11;;;;;;;8.30;5.00;;;;;;;-3.60;78.19;101397.34;107323;1247;68655;-71
2022/03/09 05:14:40;;;;;;;6.60;4.70;;;;;;;-3.62;77.45;101402.98;107114;1250;72251;-71
2022/03/09 05:17:09;;;;;;;8.20;4.50;;;;;;;-3.54;77.00;101406.35;107392;1247;60472;-69
2022/03/09 05:19:38;;;;;;;9.30;4.40;;;;;;;-3.48;76.97;101407.54;107482;1247;60855;-70
2022/03/09 05:22:07;;;;;;;8.10;5.20;;;;;;;-3.46;76.54;101415.36;107270;1247;73688;-71
2022/03/09 05:24:42;;;;;;;9.40;5.30;;;;;;;-3.61;76.03;101417.95;107779;1247;70725;-71
2022/03/09 05:27:11;;;;;;;8.40;4.90;;;;;;;-3.60;75.80;101419.16;107704;1247;69036;-70
2022/03/09 05:29:40;;;;;;;8.70;4.90;;;;;;;-3.60;75.22;101419.31;107720;1247;71473;-73
2022/03/09 05:32:09;;;;;;;9.60;5.30;;;;;;;-3.68;75.35;101426.98;107580;1247;60459;-71
2022/03/09 05:34:40;;;;;;;8.60;4.80;;;;;;;-3.67;75.86;101429.71;107491;1246;61437;-71
2022/03/09 05:37:09;;;;;;;11.30;5.20;;;;;;;-3.54;75.16;101436.67;107677;1245;75239;-72
2022/03/09 05:39:38;;;;;;;8.20;4.90;;;;;;;-3.53;74.83;101440.41;107541;1247;72765;-70
2022/03/09 05:42:07;;;;;;;7.00;5.40;;;;;;;-3.62;74.91;101445.89;107718;1245;70248;-73
2022/03/09 05:44:37;;;;;;;9.20;4.80;;;;;;;-3.58;74.30;101449.11;107531;1247;73406;-71
2022/03/09 05:47:07;;;;;;;11.50;6.00;;;;;;;-3.56;74.34;101456.59;107554;1247;63071;-71
2022/03/09 05:49:35;;;;;;;8.50;4.70;;;;;;;-3.56;74.43;101458.46;107487;1246;60913;-71
2022/03/09 05:52:05;;;;;;;8.30;5.10;;;;;;;-3.52;74.58;101463.57;107665;1245;75515;-73
2022/03/09 05:54:34;;;;;;;8.90;5.90;;;;;;;-3.54;74.66;101467.48;107506;1247;72972;-71
2022/03/09 05:57:04;;;;;;;9.40;5.50;;;;;;;-3.49;73.94;101466.46;107530;1247;72213;-71
2022/03/09 05:59:37;;;;;;;7.10;3.40;;;;;;;-3.59;74.54;101470.73;107664;1245;72621;-73
2022/03/09 06:02:07;;;;;;;9.30;5.40;;;;;;;-3.47;73.37;101464.23;107635;1246;61907;-70
2022/03/09 06:04:36;;;;;;;8.50;5.30;;;;;;;-3.37;73.36;101470.84;108322;1245;60373;-70
2022/03/09 06:07:05;;;;;;;8.40;5.10;;;;;;;-3.33;73.83;101476.13;107675;1247;73144;-71
2022/03/09 06:09:34;;;;;;;9.00;4.60;;;;;;;-3.30;73.30;101477.98;107659;1247;69577;-69
2022/03/09 06:12:05;;;;;;;7.50;4.60;;;;;;;-3.16;72.45;101482.70;107841;1246;68780;-73
2022/03/09 06:14:34;;;;;;;7.70;4.20;;;;;;;-3.23;72.17;101488.52;107760;1247;71971;-71
2022/03/09 06:17:03;;;;;;;6.50;4.60;;;;;;;-3.25;72.12;101486.31;107565;1246;62868;-72
2022/03/09 06:19:33;;;;;;;9.20;5.20;;;;;;;-3.30;71.72;101492.81;107460;1247;62450;-72
2022/03/09 06:22:02;;;;;;;10.30;5.80;;;;;;;-3.37;72.27;101498.27;107712;1246;75353;-71
2022/03/09 06:24:32;;;;;;;13.80;6.40;;;;;;;-3.30;71.76;101503.89;107732;1247;73113;-71
2022/03/09 06:27:01;;;;;;;8.50;5.30;;;;;;;-3.28;72.16;101514.09;107454;1247;70108;-71
2022/03/09 06:29:31;;;;;;;11.30;5.80;;;;;;;-3.26;71.76;101514.95;107426;1247;71213;-70
2022/03/09 06:32:00;;;;;;;12.30;6.30;;;;;;;-3.28;72.16;101515.80;107506;1247;60372;-72
2022/03/09 06:34:30;;;;;;;7.80;4.70;;;;;;;-3.16;71.79;101519.34;107608;1247;61660;-69
2022/03/09 06:36:59;;;;;;;10.40;5.20;;;;;;;-3.18;71.23;101514.91;107612;1247;75238;-72
2022/03/09 06:39:28;;;;;;;9.80;4.90;;;;;;;-3.17;70.88;101516.80;107910;1246;72929;-72
2022/03/09 06:41:59;;;;;;;7.00;4.30;;;;;;;-3.21;70.46;101513.39;107755;1247;71489;-72
2022/03/09 06:44:28;;;;;;;7.40;4.70;;;;;;;-3.16;70.60;101514.06;107947;1247;72416;-71
2022/03/09 06:47:04;;;;;;;10.40;5.50;;;;;;;-3.20;71.41;101521.73;107805;1247;59702;-70
2022/03/09 06:49:33;;;;;;;9.50;5.50;;;;;;;-3.11;69.97;101525.30;107505;1247;58978;-71
2022/03/09 06:52:02;;;;;;;8.90;5.00;;;;;;;-3.29;69.82;101529.60;107618;1247;72859;-70
2022/03/09 06:54:31;;;;;;;10.20;5.30;;;;;;;-3.40;70.50;101530.64;107775;1247;70561;-71
2022/03/09 06:57:01;;;;;;;9.10;5.30;;;;;;;-3.33;70.27;101528.07;107882;1247;70597;-72
2022/03/09 06:59:30;;;;;;;9.60;5.50;;;;;;;-3.34;70.40;101530.80;107679;1247;71552;-71
2022/03/09 07:02:00;;;;;;;10.70;5.70;;;;;;;-3.29;70.50;101535.23;107681;1247;61606;-71
2022/03/09 07:04:30;;;;;;;10.30;5.60;;;;;;;-3.24;70.45;101545.27;107832;1247;59570;-73
2022/03/09 07:06:58;;;;;;;12.60;6.80;;;;;;;-3.18;70.19;101546.79;107547;1247;73578;-70
2022/03/09 07:09:29;;;;;;;11.90;5.30;;;;;;;-3.17;69.72;101552.41;107546;1247;71291;-71
2022/03/09 07:12:03;;;;;;;9.50;4.90;;;;;;;-3.24;69.50;101557.52;107329;1247;70417;-71
2022/03/09 07:14:36;;;;;;;8.70;4.00;;;;;;;-3.30;69.66;101557.54;107644;1247;74009;-72
2022/03/09 07:17:06;;;;;;;11.40;6.30;;;;;;;-3.44;69.85;101558.91;107049;1245;62547;-73
2022/03/09 07:19:36;;;;;;;10.40;6.70;;;;;;;-3.44;70.09;101558.76;107336;1247;60143;-72
2022/03/09 07:22:07;;;;;;;9.60;6.00;;;;;;;-3.35;69.86;101561.30;107389;1247;71716;-72
2022/03/09 07:24:37;;;;;;;8.20;5.40;;;;;;;-3.41;69.77;101558.23;107479;1247;72163;-72
2022/03/09 07:27:07;;;;;;;8.90;4.80;;;;;;;-3.35;69.65;101560.79;107849;1247;70594;-70
2022/03/09 07:29:36;;;;;;;12.40;6.40;;;;;;;-3.30;69.10;101557.20;107127;1247;74513;-72
2022/03/09 07:32:08;;;;;;;8.50;4.50;;;;;;;-3.22;69.01;101555.14;107368;1247;59711;-75
2022/03/09 07:34:37;;;;;;;8.70;5.00;;;;;;;-3.11;68.82;101555.29;107514;1247;59032;-76
2022/03/09 07:37:07;;;;;;;8.60;5.10;;;;;;;-3.21;69.08;101553.95;107400;1247;74039;-74
2022/03/09 07:39:37;;;;;;;10.90;5.40;;;;;;;-3.05;68.57;101550.33;107276;1247;72980;-74
2022/03/09 07:42:08;;;;;;;8.50;5.00;;;;;;;-2.91;68.38;101549.78;108154;1247;70903;-73
2022/03/09 07:44:41;;;;;;;12.00;6.00;;;;;;;-2.88;67.87;101548.23;107512;1247;75302;-72
2022/03/09 07:47:10;;;;;;;8.90;5.00;;;;;;;-3.05;67.91;101550.66;107513;1247;61871;-72
2022/03/09 07:49:39;;;;;;;7.20;4.20;;;;;;;-2.99;67.90;101549.45;108121;1247;60967;-74
2022/03/09 07:52:10;;;;;;;8.70;5.50;;;;;;;-2.93;67.48;101550.97;108015;1247;74076;-73
2022/03/09 07:54:44;;;;;;;8.70;5.30;;;;;;;-2.82;67.99;101551.45;107359;1247;72373;-75
2022/03/09 07:57:14;;;;;;;9.50;5.60;;;;;;;-2.62;67.94;101555.28;107787;1246;69730;-74
2022/03/09 07:59:43;;;;;;;10.20;5.40;;;;;;;-2.49;67.97;101558.98;108583;1247;72605;-74
2022/03/09 08:02:13;;;;;;;11.70;6.70;;;;;;;-2.21;67.93;101560.52;107478;1247;60337;-72
2022/03/09 08:04:42;;;;;;;7.40;4.30;;;;;;;-1.99;66.71;101567.89;107419;1247;60235;-73
2022/03/09 08:07:12;;;;;;;9.10;4.50;;;;;;;-1.76;65.60;101570.45;107688;1247;73434;-72
2022/03/09 08:09:41;;;;;;;9.80;4.90;;;;;;;-1.89;64.70;101570.21;107280;1247;70848;-74
2022/03/09 08:12:11;;;;;;;11.80;5.50;;;;;;;-1.97;65.08;101566.33;107683;1247;70515;-74
2022/03/09 08:14:40;;;;;;;11.20;6.50;;;;;;;-2.03;65.77;101563.98;107414;1247;72341;-73
2022/03/09 08:17:12;;;;;;;11.10;6.00;;;;;;;-1.89;65.10;101567.48;107336;1247;58932;-73
2022/03/09 08:19:41;;;;;;;10.40;6.30;;;;;;;-1.92;64.70;101567.16;107652;1245;61720;-75
2022/03/09 08:22:11;;;;;;;7.60;5.50;;;;;;;-2.10;65.35;101566.09;107345;1247;73047;-72
2022/03/09 08:24:41;;;;;;;13.40;7.00;;;;;;;-2.05;64.98;101566.05;107213;1248;70335;-72
2022/03/09 08:27:10;;;;;;;11.30;5.50;;;;;;;-2.06;65.40;101567.42;107133;1247;69812;-73
2022/03/09 08:29:40;;;;;;;11.00;5.70;;;;;;;-2.04;65.20;101569.64;107436;1247;74697;-73
2022/03/09 08:32:09;;;;;;;10.10;6.00;;;;;;;-2.09;65.26;101570.35;107578;1245;60287;-73
2022/03/09 08:34:38;;;;;;;11.30;7.20;;;;;;;-2.06;64.84;101565.20;107463;1247;61881;-72
2022/03/09 08:37:07;;;;;;;12.00;5.80;;;;;;;-2.07;65.23;101564.19;107678;1247;73292;-72
2022/03/09 08:39:36;;;;;;;11.50;6.70;;;;;;;-2.06;65.46;101565.88;107627;1247;72476;-73
2022/03/09 08:42:05;;;;;;;11.00;7.00;;;;;;;-1.99;65.65;101564.14;107631;1247;67481;-73
2022/03/09 08:44:43;;;;;;;11.40;6.60;;;;;;;-1.80;66.21;101563.64;107557;1246;74487;-73
2022/03/09 08:47:12;;;;;;;9.80;5.90;;;;;;;-1.58;65.78;101568.60;107646;1246;59624;-70
2022/03/09 08:49:41;;;;;;;8.30;5.10;;;;;;;-1.36;65.32;101569.25;107495;1247;59542;-75
2022/03/09 08:52:12;;;;;;;11.40;6.10;;;;;;;-1.19;64.28;101568.40;107382;1247;73159;-75
2022/03/09 08:54:41;;;;;;;9.30;5.60;;;;;;;-1.11;64.38;101568.33;107666;1246;70082;-74
2022/03/09 08:57:10;;;;;;;8.20;6.10;;;;;;;-0.85;63.41;101569.23;107722;1247;67751;-73
2022/03/09 08:59:39;;;;;;;9.50;6.30;;;;;;;-0.88;63.34;101568.77;107472;1247;72250;-74
2022/03/09 09:02:10;;;;;;;8.30;5.50;;;;;;;-0.86;63.47;101570.27;107478;1247;60618;-74
2022/03/09 09:04:40;;;;;;;10.70;6.40;;;;;;;-0.95;63.42;101562.86;107468;1247;60962;-73
2022/03/09 09:07:09;;;;;;;7.90;5.50;;;;;;;-0.86;63.70;101569.60;107536;1247;72325;-73
2022/03/09 09:09:38;;;;;;;9.10;5.00;;;;;;;-0.64;62.81;101573.78;107699;1247;70662;-73
2022/03/09 09:12:08;;;;;;;10.20;5.70;;;;;;;-0.57;61.98;101573.69;107691;1246;67913;-73
2022/03/09 09:14:38;;;;;;;7.40;5.40;;;;;;;-0.41;61.72;101573.30;107607;1247;75091;-76
2022/03/09 09:17:07;;;;;;;6.50;4.40;;;;;;;-0.28;60.72;101569.55;107895;1247;59602;-74
2022/03/09 09:19:58;;;;;;;7.80;5.40;;;;;;;-0.40;60.62;101576.20;107765;1247;59861;-76
2022/03/09 09:22:28;;;;;;;10.20;6.00;;;;;;;-0.41;60.76;101576.04;107342;1247;73557;-74
2022/03/09 09:25:17;;;;;;;6.60;5.00;;;;;;;-0.35;60.44;101575.63;107739;1247;73573;-75
2022/03/09 09:27:47;;;;;;;8.20;5.60;;;;;;;-0.35;60.13;101570.48;107707;1247;70364;-73
2022/03/09 09:30:18;;;;;;;9.30;5.90;;;;;;;-0.19;59.63;101569.42;107629;1247;74593;-75
2022/03/09 09:32:49;;;;;;;7.30;4.50;;;;;;;-0.32;59.30;101569.94;107594;1247;61883;-72
2022/03/09 09:35:19;;;;;;;8.40;4.60;;;;;;;-0.36;59.11;101573.09;107638;1247;60804;-74
2022/03/09 09:37:48;;;;;;;7.00;4.50;;;;;;;-0.49;59.41;101564.02;107828;1247;72044;-72
2022/03/09 09:40:18;;;;;;;7.90;4.80;;;;;;;-0.41;59.37;101562.00;107828;1247;71341;-75
2022/03/09 09:42:50;;;;;;;8.70;4.30;;;;;;;-0.16;59.37;101561.84;107530;1247;68399;-74
2022/03/09 09:45:22;;;;;;;5.80;3.00;;;;;;;-0.00;58.00;101556.13;107614;1247;73190;-73
2022/03/09 09:47:53;;;;;;;6.10;4.30;;;;;;;0.10;57.15;101551.68;107455;1247;60031;-73
2022/03/09 09:50:23;;;;;;;5.70;4.30;;;;;;;0.13;56.34;101546.67;107607;1247;60042;-75
2022/03/09 09:52:54;;;;;;;6.10;4.10;;;;;;;0.16;56.81;101547.30;107489;1247;72117;-74
2022/03/09 09:55:27;;;;;;;6.60;3.50;;;;;;;0.41;54.68;101544.85;107690;1247;72202;-74
2022/03/09 09:57:58;;;;;;;6.90;3.40;;;;;;;0.47;52.85;101550.04;107527;1247;70867;-74
2022/03/09 10:00:27;;;;;;;5.80;3.40;;;;;;;0.25;53.61;101542.20;107397;1247;73537;-74
2022/03/09 10:03:05;;;;;;;6.00;3.80;;;;;;;0.45;54.13;101539.45;107410;1247;59657;-73
2022/03/09 10:05:34;;;;;;;6.80;3.70;;;;;;;0.67;53.46;101536.48;107519;1247;60458;-75
2022/03/09 10:08:03;;;;;;;6.00;3.80;;;;;;;0.77;52.55;101531.86;107675;1247;71901;-73
2022/03/09 10:10:36;;;;;;;7.00;4.10;;;;;;;0.79;52.88;101540.39;107654;1247;72205;-75
2022/03/09 10:13:21;;;;;;;7.60;4.30;;;;;;;0.55;53.76;101540.83;107695;1247;68488;-73
2022/03/09 10:16:12;;;;;;;7.80;4.50;;;;;;;0.26;54.82;101547.83;107595;1247;71964;-71
2022/03/09 10:18:57;;;;;;;5.60;3.30;;;;;;;0.18;53.13;101548.65;107661;1244;60842;-74
2022/03/09 10:21:35;;;;;;;5.70;3.90;;;;;;;0.18;53.50;101545.23;107576;1244;61454;-74
2022/03/09 10:24:09;;;;;;;6.20;4.20;;;;;;;0.14;54.11;101547.16;107736;1245;73123;-74
2022/03/09 10:26:40;;;;;;;7.80;5.00;;;;;;;0.36;52.63;101537.56;107685;1245;71776;-73
2022/03/09 10:29:13;;;;;;;4.80;3.10;;;;;;;0.62;51.23;101534.02;108099;1245;69791;-74
2022/03/09 10:31:50;;;;;;;4.30;2.60;;;;;;;1.13;51.62;101528.23;108347;1244;75071;-74
2022/03/09 10:34:29;;;;;;;4.00;2.40;;;;;;;1.41;49.36;101529.02;107699;1244;62016;-73
2022/03/09 10:37:04;;;;;;;4.80;3.10;;;;;;;1.28;48.77;101534.61;107917;1245;61623;-74
2022/03/09 10:39:38;;;;;;;5.10;2.80;;;;;;;1.21;49.57;101532.18;107701;1244;72152;-75
2022/03/09 10:42:25;;;;;;;5.20;3.40;;;;;;;1.00;49.40;101532.96;107723;1244;71318;-75
2022/03/09 10:44:54;;;;;;;4.60;2.80;;;;;;;0.85;50.66;101528.45;107742;1245;67922;-72
2022/03/09 10:47:39;;;;;;;3.90;2.40;;;;;;;1.12;49.16;101530.13;107730;1245;72224;-73
2022/03/09 10:50:13;;;;;;;4.30;2.70;;;;;;;1.08;46.41;101527.15;107705;1247;59608;-74
2022/03/09 10:52:55;;;;;;;5.20;3.20;;;;;;;0.85;47.02;101520.39;107823;1245;58920;-74
2022/03/09 10:55:33;;;;;;;3.90;2.50;;;;;;;0.92;48.20;101517.84;107778;1244;72459;-73
2022/03/09 10:58:19;;;;;;;2.90;1.80;;;;;;;0.99;48.00;101520.62;107731;1245;71294;-73
2022/03/09 11:00:51;;;;;;;4.50;2.70;;;;;;;1.01;46.44;101513.02;107625;1246;70916;-75
2022/03/09 11:03:27;;;;;;;3.20;2.40;;;;;;;1.15;47.85;101512.40;107389;1244;74438;-74
2022/03/09 11:06:01;;;;;;;3.20;2.20;;;;;;;0.96;45.82;101513.83;107666;1247;58690;-72
2022/03/09 11:08:35;;;;;;;3.90;2.60;;;;;;;1.01;46.32;101514.23;107594;1246;61344;-75
2022/03/09 11:11:08;;;;;;;3.60;2.10;;;;;;;0.89;46.72;101507.09;107884;1245;75175;-73
2022/03/09 11:13:38;;;;;;;5.40;3.00;;;;;;;1.35;46.45;101509.77;107789;1244;69017;-75
2022/03/09 11:16:08;;;;;;;4.80;3.00;;;;;;;1.63;46.84;101511.21;107724;1247;68732;-75
2022/03/09 11:18:38;;;;;;;4.80;2.40;;;;;;;1.50;46.30;101519.56;108064;1244;71972;-73
2022/03/09 11:21:10;;;;;;;3.90;2.80;;;;;;;1.26;46.40;101515.95;108131;1245;59620;-75
2022/03/09 11:23:40;;;;;;;5.40;2.20;;;;;;;0.87;47.86;101519.65;107874;1244;59042;-76
2022/03/09 11:26:23;;;;;;;3.50;2.40;;;;;;;0.92;47.50;101518.19;107913;1244;74424;-74
2022/03/09 11:29:02;;;;;;;4.60;2.80;;;;;;;0.79;48.16;101516.73;107572;1246;72895;-75
2022/03/09 11:31:53;;;;;;;4.00;2.30;;;;;;;0.52;48.85;101519.27;107938;1245;71392;-76
2022/03/09 11:34:46;;;;;;;8.10;3.10;;;;;;;0.73;48.16;101518.90;107890;1244;72089;-73